createdAt,value
2019-05-29T00:00:34.859Z,26.00
2019-05-29T00:03:06.302Z,26.00
2019-05-29T00:05:37.462Z,26.00
2019-05-29T00:08:08.500Z,26.00
2019-05-29T00:10:39.462Z,26.10
2019-05-29T00:13:12.295Z,26.10
2019-05-29T00:15:43.403Z,26.20
2019-05-29T00:18:14.564Z,26.20
2019-05-29T00:20:46.895Z,26.20
2019-05-29T00:23:18.832Z,26.30
2019-05-29T00:25:49.748Z,26.30
2019-05-29T00:28:20.620Z,26.30
2019-05-29T00:30:51.340Z,26.20
2019-05-29T00:33:22.940Z,26.20
2019-05-29T00:35:53.831Z,26.10
2019-05-29T00:38:24.774Z,26.10
2019-05-29T00:40:55.714Z,26.10
2019-05-29T00:43:26.555Z,26.10
2019-05-29T00:45:57.387Z,26.20
2019-05-29T00:48:28.413Z,26.20
2019-05-29T00:50:59.183Z,26.30
2019-05-29T00:53:30.097Z,26.30
2019-05-29T00:56:01.906Z,26.40
2019-05-29T00:58:32.755Z,26.40
2019-05-29T01:01:03.975Z,26.50
2019-05-29T01:03:35.080Z,26.50
2019-05-29T01:06:05.968Z,26.40
2019-05-29T01:08:36.826Z,26.50
2019-05-29T01:11:07.795Z,26.60
2019-05-29T01:13:38.388Z,26.60
2019-05-29T01:16:09.474Z,26.60
2019-05-29T01:18:40.597Z,26.70
2019-05-29T01:21:11.796Z,26.70
2019-05-29T01:23:44.378Z,26.70
2019-05-29T01:26:14.728Z,26.70
2019-05-29T01:28:45.549Z,26.80
2019-05-29T01:31:19.364Z,26.90
2019-05-29T01:33:50.868Z,27.00
2019-05-29T01:36:22.057Z,27.00
2019-05-29T01:38:52.731Z,27.00
2019-05-29T01:41:23.533Z,27.10
2019-05-29T01:43:54.407Z,27.10
2019-05-29T01:46:25.254Z,27.10
2019-05-29T01:48:55.964Z,27.10
2019-05-29T01:51:27.961Z,27.10
2019-05-29T01:53:58.824Z,27.10
2019-05-29T01:56:29.945Z,27.20
2019-05-29T01:59:00.694Z,27.20
2019-05-29T02:01:33.584Z,27.30
2019-05-29T02:04:03.211Z,27.30
2019-05-29T02:06:33.817Z,27.40
2019-05-29T02:09:04.908Z,27.40
2019-05-29T02:11:35.605Z,27.40
2019-05-29T02:14:06.365Z,27.40
2019-05-29T02:16:37.323Z,27.50
2019-05-29T02:19:08.055Z,27.60
2019-05-29T02:21:39.339Z,27.60
2019-05-29T02:24:10.583Z,27.60
2019-05-29T02:26:41.294Z,27.70
2019-05-29T02:29:12.329Z,27.80
2019-05-29T02:31:43.631Z,27.80
2019-05-29T02:34:14.566Z,27.80
2019-05-29T02:36:45.325Z,27.90
2019-05-29T02:39:16.009Z,28.00
2019-05-29T02:41:46.750Z,28.10
2019-05-29T02:44:19.019Z,28.10
2019-05-29T02:46:50.814Z,28.30
2019-05-29T02:49:23.833Z,28.30
2019-05-29T02:51:54.829Z,28.50
2019-05-29T02:54:27.303Z,28.50
2019-05-29T02:56:58.444Z,28.50
2019-05-29T02:59:29.768Z,28.60
2019-05-29T03:02:01.742Z,28.60
2019-05-29T03:04:33.063Z,28.70
2019-05-29T03:07:04.288Z,28.70
2019-05-29T03:09:35.269Z,28.80
2019-05-29T03:12:06.010Z,28.80
2019-05-29T03:14:36.833Z,28.90
2019-05-29T03:17:07.488Z,29.00
2019-05-29T03:19:38.271Z,29.10
2019-05-29T03:22:08.990Z,29.30
2019-05-29T03:24:39.749Z,29.40
2019-05-29T03:27:10.536Z,29.40
2019-05-29T03:29:42.065Z,29.50
2019-05-29T03:32:14.443Z,29.60
2019-05-29T03:34:46.845Z,29.60
2019-05-29T03:37:17.168Z,29.60
2019-05-29T03:39:47.841Z,29.70
2019-05-29T03:42:18.875Z,29.70
2019-05-29T03:44:49.615Z,29.80
2019-05-29T03:47:20.364Z,29.80
2019-05-29T03:49:51.168Z,29.80
2019-05-29T03:52:21.874Z,29.90
2019-05-29T03:54:52.560Z,30.00
2019-05-29T03:57:23.430Z,30.10
2019-05-29T03:59:54.103Z,30.20
2019-05-29T04:02:26.744Z,30.20
2019-05-29T04:04:57.439Z,30.10
2019-05-29T04:07:29.273Z,30.00
2019-05-29T04:10:00.088Z,29.90
2019-05-29T04:12:31.413Z,29.90
2019-05-29T04:15:02.216Z,30.00
2019-05-29T04:17:33.755Z,30.10
2019-05-29T04:20:05.056Z,30.20
2019-05-29T04:22:38.354Z,30.40
2019-05-29T04:25:09.899Z,30.50
2019-05-29T04:27:40.642Z,30.60
2019-05-29T04:30:11.426Z,30.70
2019-05-29T04:32:42.843Z,30.80
2019-05-29T04:35:13.542Z,30.80
2019-05-29T04:37:44.268Z,30.80
2019-05-29T04:40:15.187Z,30.70
2019-05-29T04:42:46.165Z,30.60
2019-05-29T04:45:16.846Z,30.70
2019-05-29T04:47:47.730Z,30.70
2019-05-29T04:50:18.367Z,30.70
2019-05-29T04:52:49.074Z,30.60
2019-05-29T04:55:19.857Z,30.60
2019-05-29T04:57:51.087Z,30.70
2019-05-29T05:00:22.825Z,30.90
2019-05-29T05:02:54.898Z,30.90
2019-05-29T05:05:25.848Z,30.90
2019-05-29T05:07:56.528Z,30.90
2019-05-29T05:10:31.137Z,30.90
2019-05-29T05:13:02.240Z,30.90
2019-05-29T05:15:33.653Z,31.00
2019-05-29T05:18:04.634Z,31.10
2019-05-29T05:20:36.208Z,31.10
2019-05-29T05:23:07.605Z,31.20
2019-05-29T05:25:38.397Z,31.20
2019-05-29T05:28:09.204Z,31.10
2019-05-29T05:30:40.800Z,31.00
2019-05-29T05:33:11.614Z,31.00
2019-05-29T05:35:42.391Z,30.90
2019-05-29T05:38:13.019Z,30.90
2019-05-29T05:40:43.672Z,31.00
2019-05-29T05:43:23.728Z,31.10
2019-05-29T05:45:46.730Z,31.20
2019-05-29T05:48:17.461Z,31.40
2019-05-29T05:50:48.394Z,31.50
2019-05-29T05:53:19.119Z,31.60
2019-05-29T05:55:49.821Z,31.70
2019-05-29T05:58:21.002Z,31.70
2019-05-29T06:00:51.682Z,31.70
2019-05-29T06:03:23.725Z,31.70
2019-05-29T06:05:55.069Z,31.60
2019-05-29T06:08:25.765Z,31.60
2019-05-29T06:10:56.719Z,31.50
2019-05-29T06:13:27.750Z,31.40
2019-05-29T06:15:59.251Z,31.40
2019-05-29T06:18:32.389Z,31.30
2019-05-29T06:21:03.335Z,31.30
2019-05-29T06:23:34.794Z,31.20
2019-05-29T06:26:05.544Z,31.30
2019-05-29T06:28:37.099Z,31.30
2019-05-29T06:31:08.424Z,31.30
2019-05-29T06:33:39.455Z,31.30
2019-05-29T06:36:10.474Z,31.30
2019-05-29T06:38:42.207Z,31.30
2019-05-29T06:41:12.947Z,31.30
2019-05-29T06:43:44.597Z,31.30
2019-05-29T06:46:16.460Z,31.30
2019-05-29T06:48:58.634Z,31.30
2019-05-29T06:51:19.507Z,31.30
2019-05-29T06:53:50.320Z,31.20
2019-05-29T06:56:21.094Z,31.10
2019-05-29T06:58:52.169Z,31.10
2019-05-29T07:01:23.447Z,31.00
2019-05-29T07:04:10.630Z,31.00
2019-05-29T07:06:42.675Z,31.00
2019-05-29T07:09:13.435Z,31.10
2019-05-29T07:11:45.463Z,31.20
2019-05-29T07:14:17.717Z,31.20
2019-05-29T07:16:55.949Z,31.20
2019-05-29T07:19:26.822Z,31.20
2019-05-29T07:21:55.125Z,31.20
2019-05-29T07:24:25.822Z,31.20
2019-05-29T07:26:57.617Z,31.20
2019-05-29T07:29:29.486Z,31.20
2019-05-29T07:32:01.154Z,31.20
2019-05-29T07:34:47.393Z,31.10
2019-05-29T07:37:04.088Z,31.00
2019-05-29T07:39:37.353Z,31.10
2019-05-29T07:42:08.146Z,31.10
2019-05-29T07:44:39.939Z,31.20
2019-05-29T07:47:11.184Z,31.40
2019-05-29T07:49:46.147Z,31.50
2019-05-29T07:52:15.344Z,31.60
2019-05-29T07:54:46.194Z,31.60
2019-05-29T07:57:17.500Z,31.70
2019-05-29T07:59:48.837Z,31.90
2019-05-29T08:02:23.387Z,31.90
2019-05-29T08:04:54.409Z,32.00
2019-05-29T08:07:25.521Z,32.10
2019-05-29T08:09:56.235Z,32.10
2019-05-29T08:12:26.935Z,32.30
2019-05-29T08:14:57.653Z,32.30
2019-05-29T08:17:28.739Z,32.40
2019-05-29T08:20:07.185Z,32.40
2019-05-29T08:22:34.460Z,32.40
2019-05-29T08:25:04.167Z,32.40
2019-05-29T08:27:34.896Z,32.30
2019-05-29T08:30:08.473Z,32.20
2019-05-29T08:32:39.148Z,32.10
2019-05-29T08:35:10.095Z,32.00
2019-05-29T08:37:40.947Z,31.90
2019-05-29T08:40:11.783Z,31.90
2019-05-29T08:42:43.098Z,31.80
2019-05-29T08:45:14.901Z,31.70
2019-05-29T08:47:45.669Z,31.70
2019-05-29T08:50:18.427Z,31.70
2019-05-29T08:52:48.452Z,31.60
2019-05-29T08:55:19.148Z,31.60
2019-05-29T08:57:50.450Z,31.50
2019-05-29T09:00:22.304Z,31.40
2019-05-29T09:02:52.983Z,31.40
2019-05-29T09:05:24.928Z,31.40
2019-05-29T09:07:55.567Z,31.40
2019-05-29T09:10:26.193Z,31.40
2019-05-29T09:13:04.665Z,31.40
2019-05-29T09:15:29.893Z,31.40
2019-05-29T09:18:00.875Z,31.40
2019-05-29T09:20:57.418Z,31.40
2019-05-29T09:23:03.789Z,31.40
2019-05-29T09:25:35.881Z,31.40
2019-05-29T09:28:09.115Z,31.40
2019-05-29T09:30:39.943Z,31.40
2019-05-29T09:33:10.591Z,31.50
2019-05-29T09:35:41.483Z,31.60
2019-05-29T09:38:12.701Z,31.60
2019-05-29T09:40:43.345Z,31.70
2019-05-29T09:43:15.031Z,31.70
2019-05-29T09:45:46.116Z,31.70
2019-05-29T09:48:21.376Z,31.70
2019-05-29T09:50:50.810Z,31.70
2019-05-29T09:53:20.709Z,31.70
2019-05-29T09:55:52.254Z,31.70
2019-05-29T09:58:23.488Z,31.70
2019-05-29T10:01:21.369Z,31.70
2019-05-29T10:03:38.111Z,31.70
2019-05-29T10:06:09.624Z,31.70
2019-05-29T10:08:40.393Z,31.70
2019-05-29T10:11:11.328Z,31.60
2019-05-29T10:13:42.235Z,31.60
2019-05-29T10:16:13.147Z,31.60
2019-05-29T10:18:43.897Z,31.50
2019-05-29T10:21:14.536Z,31.50
2019-05-29T10:23:45.486Z,31.50
2019-05-29T10:26:16.158Z,31.40
2019-05-29T10:29:02.038Z,31.40
2019-05-29T10:31:18.914Z,31.40
2019-05-29T10:33:50.269Z,31.50
2019-05-29T10:36:21.375Z,31.40
2019-05-29T10:38:52.688Z,31.40
2019-05-29T10:41:23.571Z,31.40
2019-05-29T10:43:54.466Z,31.40
2019-05-29T10:46:25.234Z,31.30
2019-05-29T10:48:56.654Z,31.30
2019-05-29T10:51:27.696Z,31.20
2019-05-29T10:53:59.876Z,31.30
2019-05-29T10:56:30.595Z,31.20
2019-05-29T10:59:01.437Z,31.20
2019-05-29T11:01:32.793Z,31.10
2019-05-29T11:04:03.695Z,31.10
2019-05-29T11:06:34.383Z,31.00
2019-05-29T11:09:07.039Z,30.90
2019-05-29T11:11:38.022Z,30.80
2019-05-29T11:14:08.647Z,30.70
2019-05-29T11:16:39.956Z,30.70
2019-05-29T11:19:10.783Z,30.60
2019-05-29T11:21:41.394Z,30.60
2019-05-29T11:24:12.061Z,30.60
2019-05-29T11:26:42.881Z,30.50
2019-05-29T11:29:13.461Z,30.40
2019-05-29T11:31:44.187Z,30.40
2019-05-29T11:34:15.098Z,30.30
2019-05-29T11:36:45.755Z,30.10
2019-05-29T11:39:16.401Z,30.10
2019-05-29T11:41:47.075Z,30.00
2019-05-29T11:44:17.736Z,29.90
2019-05-29T11:46:50.004Z,29.90
2019-05-29T11:49:20.430Z,29.90
2019-05-29T11:51:51.548Z,29.80
2019-05-29T11:54:22.386Z,29.80
2019-05-29T11:56:53.718Z,29.80
2019-05-29T11:59:25.396Z,29.80
2019-05-29T12:01:57.357Z,29.70
2019-05-29T12:04:27.900Z,29.70
2019-05-29T12:06:59.503Z,29.60
2019-05-29T12:09:33.399Z,29.60
2019-05-29T12:12:02.505Z,29.60
2019-05-29T12:14:33.152Z,29.50
2019-05-29T12:17:04.089Z,29.50
2019-05-29T12:19:34.930Z,29.50
2019-05-29T12:22:05.627Z,29.40
2019-05-29T12:24:36.420Z,29.30
2019-05-29T12:27:07.349Z,29.20
2019-05-29T12:29:38.036Z,29.10
2019-05-29T12:32:10.740Z,29.00
2019-05-29T12:34:52.810Z,28.90
2019-05-29T12:37:12.900Z,28.80
2019-05-29T12:39:43.669Z,28.70
2019-05-29T12:42:14.433Z,28.60
2019-05-29T12:44:45.106Z,28.60
2019-05-29T12:47:15.781Z,28.50
2019-05-29T12:49:46.514Z,28.40
2019-05-29T12:52:17.150Z,28.40
2019-05-29T12:54:47.763Z,28.30
2019-05-29T12:57:18.611Z,28.30
2019-05-29T12:59:49.240Z,28.20
2019-05-29T13:02:20.626Z,28.20
2019-05-29T13:05:06.837Z,28.00
2019-05-29T13:07:23.643Z,28.00
2019-05-29T13:09:56.494Z,27.80
2019-05-29T13:12:26.897Z,27.70
2019-05-29T13:14:58.549Z,27.60
2019-05-29T13:17:29.500Z,27.60
2019-05-29T13:20:08.276Z,27.50
2019-05-29T13:22:32.269Z,27.50
2019-05-29T13:25:03.467Z,27.40
2019-05-29T13:27:34.347Z,27.30
2019-05-29T13:30:08.272Z,27.30
2019-05-29T13:32:38.795Z,27.20
2019-05-29T13:35:09.543Z,27.10
2019-05-29T13:37:40.301Z,27.00
2019-05-29T13:40:11.115Z,26.90
2019-05-29T13:42:41.893Z,26.90
2019-05-29T13:45:17.737Z,26.80
2019-05-29T13:47:44.885Z,26.70
2019-05-29T13:50:16.625Z,26.70
2019-05-29T13:52:47.501Z,26.60
2019-05-29T13:55:19.156Z,26.60
2019-05-29T13:57:49.936Z,26.60
2019-05-29T14:00:36.115Z,26.60
2019-05-29T14:02:53.865Z,26.60
2019-05-29T14:05:24.786Z,26.60
2019-05-29T14:07:55.488Z,26.60
2019-05-29T14:10:26.488Z,26.60
2019-05-29T14:12:57.335Z,26.60
2019-05-29T14:15:27.953Z,26.50
2019-05-29T14:17:58.736Z,26.50
2019-05-29T14:20:29.412Z,26.50
2019-05-29T14:23:01.264Z,26.50
2019-05-29T14:25:32.052Z,26.50
2019-05-29T14:28:02.775Z,26.60
2019-05-29T14:30:33.483Z,26.60
2019-05-29T14:33:04.442Z,26.60
2019-05-29T14:35:35.173Z,26.70
2019-05-29T14:38:09.917Z,26.60
2019-05-29T14:40:37.840Z,26.70
2019-05-29T14:43:11.340Z,26.70
2019-05-29T14:45:40.636Z,26.80
2019-05-29T14:48:13.105Z,26.90
2019-05-29T14:50:43.296Z,27.00
2019-05-29T14:53:13.951Z,27.00
2019-05-29T14:55:44.660Z,27.10
2019-05-29T14:58:15.495Z,27.10
2019-05-29T15:00:46.153Z,27.20
2019-05-29T15:03:17.499Z,27.20
2019-05-29T15:05:48.206Z,27.10
2019-05-29T15:08:18.901Z,27.10
2019-05-29T15:10:50.138Z,27.10
2019-05-29T15:13:20.971Z,27.10
2019-05-29T15:15:51.666Z,27.00
2019-05-29T15:18:22.461Z,27.00
2019-05-29T15:20:54.202Z,27.00
2019-05-29T15:23:24.884Z,26.90
2019-05-29T15:25:55.533Z,26.80
2019-05-29T15:28:26.212Z,26.80
2019-05-29T15:30:56.975Z,26.90
2019-05-29T15:33:27.912Z,26.90
2019-05-29T15:35:58.575Z,26.90
2019-05-29T15:38:29.227Z,26.80
2019-05-29T15:40:59.980Z,26.80
2019-05-29T15:43:30.635Z,26.70
2019-05-29T15:46:01.325Z,26.60
2019-05-29T15:48:32.093Z,26.60
2019-05-29T15:51:02.774Z,26.50
2019-05-29T15:53:33.517Z,26.40
2019-05-29T15:56:18.209Z,26.40
2019-05-29T15:58:36.357Z,26.40
2019-05-29T16:01:07.661Z,26.40
2019-05-29T16:03:39.177Z,26.40
2019-05-29T16:06:10.024Z,26.40
2019-05-29T16:08:40.691Z,26.40
2019-05-29T16:11:12.621Z,26.40
2019-05-29T16:13:43.375Z,26.40
2019-05-29T16:16:15.202Z,26.40
2019-05-29T16:18:46.051Z,26.40
2019-05-29T16:21:16.900Z,26.30
2019-05-29T16:23:47.558Z,26.30
2019-05-29T16:26:19.889Z,26.20
2019-05-29T16:28:50.231Z,26.10
2019-05-29T16:31:21.139Z,26.10
2019-05-29T16:33:51.805Z,26.00
2019-05-29T16:36:22.501Z,26.10
2019-05-29T16:38:53.265Z,26.00
2019-05-29T16:41:23.964Z,26.00
2019-05-29T16:43:54.727Z,26.00
2019-05-29T16:46:25.363Z,26.00
2019-05-29T16:48:56.019Z,26.00
2019-05-29T16:51:26.679Z,26.10
2019-05-29T16:53:57.452Z,26.10
2019-05-29T16:56:28.117Z,26.10
2019-05-29T16:58:58.864Z,26.10
2019-05-29T17:01:29.534Z,26.10
2019-05-29T17:04:00.825Z,26.10
2019-05-29T17:06:31.667Z,26.10
2019-05-29T17:09:02.350Z,26.00
2019-05-29T17:11:32.984Z,26.00
2019-05-29T17:14:03.628Z,26.00
2019-05-29T17:16:34.347Z,26.00
2019-05-29T17:19:05.001Z,25.90
2019-05-29T17:21:35.773Z,25.90
2019-05-29T17:24:06.464Z,25.90
2019-05-29T17:26:37.170Z,25.90
2019-05-29T17:29:07.840Z,25.90
2019-05-29T17:31:38.504Z,25.90
2019-05-29T17:34:09.151Z,25.90
2019-05-29T17:36:39.788Z,25.80
2019-05-29T17:39:11.086Z,25.90
2019-05-29T17:41:41.901Z,25.80
2019-05-29T17:44:12.535Z,25.80
2019-05-29T17:46:43.575Z,25.80
2019-05-29T17:49:15.566Z,25.80
2019-05-29T17:51:46.506Z,25.90
2019-05-29T17:54:17.898Z,25.80
2019-05-29T17:56:48.695Z,25.80
2019-05-29T17:59:20.134Z,25.80
2019-05-29T18:01:50.944Z,25.70
2019-05-29T18:04:22.749Z,25.80
2019-05-29T18:06:56.453Z,25.80
2019-05-29T18:09:27.941Z,25.80
2019-05-29T18:11:58.666Z,25.80
2019-05-29T18:14:29.257Z,25.80
2019-05-29T18:17:00.247Z,25.70
2019-05-29T18:19:30.994Z,25.70
2019-05-29T18:22:01.711Z,25.70
2019-05-29T18:24:32.430Z,25.70
2019-05-29T18:27:03.116Z,25.80
2019-05-29T18:29:33.815Z,25.70
2019-05-29T18:32:04.535Z,25.80
2019-05-29T18:34:35.208Z,25.80
2019-05-29T18:37:05.891Z,25.80
2019-05-29T18:39:36.585Z,25.80
2019-05-29T18:42:07.328Z,25.80
2019-05-29T18:44:38.049Z,25.80
2019-05-29T18:47:08.744Z,25.80
2019-05-29T18:49:39.379Z,25.80
2019-05-29T18:52:10.001Z,25.80
2019-05-29T18:54:40.787Z,25.70
2019-05-29T18:57:15.502Z,25.70
2019-05-29T18:59:43.458Z,25.80
2019-05-29T19:02:14.160Z,25.80
2019-05-29T19:04:45.490Z,25.80
2019-05-29T19:07:16.677Z,25.80
2019-05-29T19:09:47.315Z,25.80
2019-05-29T19:12:18.191Z,25.80
2019-05-29T19:14:48.967Z,25.80
2019-05-29T19:17:19.711Z,25.80
2019-05-29T19:19:50.378Z,25.80
2019-05-29T19:22:22.200Z,25.70
2019-05-29T19:24:53.073Z,25.70
2019-05-29T19:27:36.979Z,25.70
2019-05-29T19:29:55.720Z,25.70
2019-05-29T19:32:27.675Z,25.80
2019-05-29T19:34:58.565Z,25.80
2019-05-29T19:37:29.911Z,25.80
2019-05-29T19:40:00.959Z,25.80
2019-05-29T19:42:32.318Z,25.80
2019-05-29T19:45:03.378Z,25.80
2019-05-29T19:47:34.836Z,25.80
2019-05-29T19:50:10.904Z,25.70
2019-05-29T19:52:39.610Z,25.70
2019-05-29T19:55:10.344Z,25.70
2019-05-29T19:57:54.915Z,25.80
2019-05-29T20:00:13.138Z,25.80
2019-05-29T20:02:43.860Z,25.80
2019-05-29T20:05:15.251Z,25.80
2019-05-29T20:07:46.156Z,25.80
2019-05-29T20:10:16.922Z,25.80
2019-05-29T20:12:48.988Z,25.80
2019-05-29T20:15:19.598Z,25.80
2019-05-29T20:17:50.240Z,25.80
2019-05-29T20:20:21.005Z,25.80
2019-05-29T20:22:51.649Z,25.80
2019-05-29T20:25:22.649Z,25.80
2019-05-29T20:28:05.516Z,25.80
2019-05-29T20:30:25.746Z,25.80
2019-05-29T20:32:56.422Z,25.80
2019-05-29T20:35:27.138Z,25.90
2019-05-29T20:37:57.769Z,25.90
2019-05-29T20:40:28.433Z,25.90
2019-05-29T20:42:59.208Z,25.90
2019-05-29T20:45:29.874Z,25.90
2019-05-29T20:48:00.661Z,25.80
2019-05-29T20:50:31.423Z,25.80
2019-05-29T20:53:02.034Z,25.80
2019-05-29T20:55:33.484Z,25.80
2019-05-29T20:58:04.174Z,25.80
2019-05-29T21:00:36.111Z,25.80
2019-05-29T21:03:06.895Z,25.80
2019-05-29T21:05:38.645Z,25.90
2019-05-29T21:08:09.705Z,25.90
2019-05-29T21:10:41.895Z,25.90
2019-05-29T21:13:13.824Z,25.90
2019-05-29T21:15:44.670Z,25.80
2019-05-29T21:18:15.298Z,25.90
2019-05-29T21:20:46.105Z,25.80
2019-05-29T21:23:16.763Z,25.90
2019-05-29T21:25:47.405Z,25.80
2019-05-29T21:28:18.587Z,25.80
2019-05-29T21:30:49.236Z,25.80
2019-05-29T21:33:20.147Z,25.90
2019-05-29T21:35:50.994Z,25.90
2019-05-29T21:38:21.627Z,25.90
2019-05-29T21:40:52.493Z,25.90
2019-05-29T21:43:23.205Z,26.00
2019-05-29T21:45:53.961Z,25.90
2019-05-29T21:48:24.879Z,25.90
2019-05-29T21:50:55.758Z,25.90
2019-05-29T21:53:27.003Z,25.90
2019-05-29T21:55:57.654Z,25.90
2019-05-29T21:58:28.300Z,25.90
2019-05-29T22:01:01.684Z,25.90
2019-05-29T22:03:32.491Z,25.90
2019-05-29T22:06:03.833Z,25.90
2019-05-29T22:08:34.734Z,25.90
2019-05-29T22:11:05.891Z,26.00
2019-05-29T22:13:38.581Z,25.90
2019-05-29T22:16:09.238Z,26.00
2019-05-29T22:18:39.942Z,26.00
2019-05-29T22:21:10.647Z,26.00
2019-05-29T22:23:41.912Z,26.10
2019-05-29T22:26:12.696Z,26.10
2019-05-29T22:28:43.338Z,26.10
2019-05-29T22:31:13.956Z,26.10
2019-05-29T22:33:44.622Z,26.10
2019-05-29T22:36:15.287Z,26.10
2019-05-29T22:38:45.882Z,26.00
2019-05-29T22:41:16.554Z,26.00
2019-05-29T22:43:47.251Z,26.00
2019-05-29T22:46:18.305Z,26.00
2019-05-29T22:48:49.077Z,25.90
2019-05-29T22:51:19.766Z,25.90
2019-05-29T22:53:52.343Z,25.90
2019-05-29T22:56:22.526Z,25.90
2019-05-29T22:58:53.973Z,25.90
2019-05-29T23:01:24.895Z,26.00
2019-05-29T23:03:56.083Z,26.10
2019-05-29T23:06:27.450Z,26.10
2019-05-29T23:08:58.501Z,26.10
2019-05-29T23:11:29.222Z,26.00
2019-05-29T23:14:01.110Z,26.00
2019-05-29T23:16:31.833Z,26.00
2019-05-29T23:19:02.788Z,26.00
2019-05-29T23:21:33.513Z,26.10
2019-05-29T23:24:04.195Z,26.20
2019-05-29T23:26:34.810Z,26.30
2019-05-29T23:29:05.475Z,26.40
2019-05-29T23:31:36.114Z,26.40
2019-05-29T23:34:06.741Z,26.40
2019-05-29T23:36:37.411Z,26.50
2019-05-29T23:39:08.565Z,26.40
2019-05-29T23:41:39.214Z,26.50
2019-05-29T23:44:09.916Z,26.50
2019-05-29T23:46:40.590Z,26.60
2019-05-29T23:49:11.377Z,26.60
2019-05-29T23:51:42.047Z,26.60
2019-05-29T23:54:12.874Z,26.60
2019-05-29T23:56:43.544Z,26.60
2019-05-29T23:59:14.205Z,26.60
